Gillette Campbell County Airport
KGCC : now visible

Airfield :











YOU CAN JOIN US ON...

 
LOGIN :

Register | Disclaimer

   EN    FR    IT 

 









Legend :    VFR   Marginal VFR   IFR   Intensive IFR   Very Intensive IFR
Visi :
Ceiling :
>= 8 km
>= 3000ft
5 to 8 km
1000 to 3000 ft
1500m to 5 km
500 to 1000 ft
800 to 1500m
200 to 500 ft
< 800m
< 200 ft
Symbols :   Thunderstorms  Fog  Heavy snow  Heavy precipitations  Wind > 20 kt






- Airport Elevation : 4365 ft


KGCC - Gillette Campbell County

CURRENT METAR :
  • 220253Z AUTO 34008KT 10SM FEW006 OVC060 02/02 A2990 RMK AO2 SLP143 T00220017 53012

EXPIRED METARs :
  • 220153Z AUTO 35006KT 10SM OVC055 03/02 A2989 RMK AO2 SLP137 T00280017
  • 220053Z AUTO 35003KT 10SM SCT060 01/00 A2987 RMK AO2 SLP131 T00110000
  • 220033Z AUTO 06004KT 10SM SCT017 02/00 A2986 RMK AO2 T00220000
  • 220004Z AUTO 05006KT 10SM BKN018 03/01 A2986 RMK AO2 T00330011

TAF KGCC
Valid from the 22 at 03:00 until the 23 at 00:00 UTC


220241Z 2203/2224 35007KT P6SM SCT008 BKN035
FM220500 36008KT 5SM BR OVC008
TEMPO 2207/2211 2SM -SHSN BR OVC005
FM221100 32024G35KT 3/4SM -SN BLSN BR OVC009
FM222100 33022G32KT 2SM BR OVC012
KZDV FIR / North America



MET'MAP, your aeronautical weather chart ! - Copyright ORBIFLY December 2007 - Disclaimer

ORBIFLY MET'MAP TEAM :

Programming & Development : Alexandra Zaïnal
Concept & original design : Baudouin d'Aumeries
Assistance for programming : Marc-Olivier Méhu
Technical & hardware support : Manuel Goepfert

Contact : metmap@orbifly.com




SOURCES & CREDITS :

   NOAA       Earth
Advisory